sensor_id;sensor_type;location;lat;lon;timestamp;P1;durP1;ratioP1;P2;durP2;ratioP2
28304;SDS011;15569;42.652;23.040;2022-07-04T00:02:10;15.35;;;9.48;;
28304;SDS011;15569;42.652;23.040;2022-07-04T00:04:35;15.90;;;9.32;;
28304;SDS011;15569;42.652;23.040;2022-07-04T00:07:00;19.05;;;9.13;;
28304;SDS011;15569;42.652;23.040;2022-07-04T00:09:26;11.00;;;8.50;;
28304;SDS011;15569;42.652;23.040;2022-07-04T00:11:51;16.23;;;9.25;;
28304;SDS011;15569;42.652;23.040;2022-07-04T00:14:17;15.00;;;10.00;;
28304;SDS011;15569;42.652;23.040;2022-07-04T00:16:42;14.63;;;9.07;;
28304;SDS011;15569;42.652;23.040;2022-07-04T00:19:07;13.27;;;9.30;;
28304;SDS011;15569;42.652;23.040;2022-07-04T00:21:33;15.48;;;10.05;;
28304;SDS011;15569;42.652;23.040;2022-07-04T00:23:58;15.60;;;10.52;;
28304;SDS011;15569;42.652;23.040;2022-07-04T00:26:24;14.60;;;9.13;;
28304;SDS011;15569;42.652;23.040;2022-07-04T00:28:49;12.88;;;9.20;;
28304;SDS011;15569;42.652;23.040;2022-07-04T00:31:15;15.18;;;9.00;;
28304;SDS011;15569;42.652;23.040;2022-07-04T00:33:40;20.67;;;8.85;;
28304;SDS011;15569;42.652;23.040;2022-07-04T00:36:05;14.88;;;8.73;;
28304;SDS011;15569;42.652;23.040;2022-07-04T00:38:31;13.68;;;8.90;;
28304;SDS011;15569;42.652;23.040;2022-07-04T00:40:56;17.48;;;8.82;;
28304;SDS011;15569;42.652;23.040;2022-07-04T00:46:01;14.10;;;9.00;;
28304;SDS011;15569;42.652;23.040;2022-07-04T00:48:28;10.60;;;8.48;;
28304;SDS011;15569;42.652;23.040;2022-07-04T00:50:54;14.73;;;8.68;;
28304;SDS011;15569;42.652;23.040;2022-07-04T00:53:20;13.77;;;9.05;;
28304;SDS011;15569;42.652;23.040;2022-07-04T00:55:48;16.45;;;9.57;;
28304;SDS011;15569;42.652;23.040;2022-07-04T00:58:15;15.70;;;8.68;;
28304;SDS011;15569;42.652;23.040;2022-07-04T01:00:46;11.43;;;8.50;;
28304;SDS011;15569;42.652;23.040;2022-07-04T01:03:12;15.02;;;9.05;;
28304;SDS011;15569;42.652;23.040;2022-07-04T01:05:38;17.23;;;10.23;;
28304;SDS011;15569;42.652;23.040;2022-07-04T01:08:04;15.82;;;9.00;;
28304;SDS011;15569;42.652;23.040;2022-07-04T01:10:30;15.52;;;8.75;;
28304;SDS011;15569;42.652;23.040;2022-07-04T01:12:55;20.52;;;9.77;;
28304;SDS011;15569;42.652;23.040;2022-07-04T01:15:21;20.80;;;9.90;;
28304;SDS011;15569;42.652;23.040;2022-07-04T01:17:47;15.93;;;10.27;;
28304;SDS011;15569;42.652;23.040;2022-07-04T01:20:13;22.83;;;9.60;;
28304;SDS011;15569;42.652;23.040;2022-07-04T01:22:38;15.23;;;9.85;;
28304;SDS011;15569;42.652;23.040;2022-07-04T01:25:04;21.35;;;10.85;;
28304;SDS011;15569;42.652;23.040;2022-07-04T01:27:30;20.00;;;10.80;;
28304;SDS011;15569;42.652;23.040;2022-07-04T01:29:55;25.17;;;11.02;;
28304;SDS011;15569;42.652;23.040;2022-07-04T01:32:21;17.20;;;10.00;;
28304;SDS011;15569;42.652;23.040;2022-07-04T01:34:47;23.15;;;11.27;;
28304;SDS011;15569;42.652;23.040;2022-07-04T01:37:12;17.55;;;10.25;;
28304;SDS011;15569;42.652;23.040;2022-07-04T01:39:38;21.70;;;10.05;;
28304;SDS011;15569;42.652;23.040;2022-07-04T01:44:36;21.55;;;10.15;;
28304;SDS011;15569;42.652;23.040;2022-07-04T01:47:02;20.83;;;11.35;;
28304;SDS011;15569;42.652;23.040;2022-07-04T01:49:28;22.60;;;10.75;;
28304;SDS011;15569;42.652;23.040;2022-07-04T01:51:53;21.02;;;10.75;;
28304;SDS011;15569;42.652;23.040;2022-07-04T01:54:19;17.00;;;10.50;;
28304;SDS011;15569;42.652;23.040;2022-07-04T01:56:45;22.23;;;11.23;;
28304;SDS011;15569;42.652;23.040;2022-07-04T01:59:11;21.05;;;10.82;;
28304;SDS011;15569;42.652;23.040;2022-07-04T02:01:36;20.83;;;10.73;;
28304;SDS011;15569;42.652;23.040;2022-07-04T02:04:03;22.20;;;11.25;;
28304;SDS011;15569;42.652;23.040;2022-07-04T02:06:29;28.15;;;12.38;;
28304;SDS011;15569;42.652;23.040;2022-07-04T02:08:55;18.65;;;10.90;;
28304;SDS011;15569;42.652;23.040;2022-07-04T02:11:40;24.27;;;12.05;;
28304;SDS011;15569;42.652;23.040;2022-07-04T02:14:25;18.50;;;10.07;;
28304;SDS011;15569;42.652;23.040;2022-07-04T02:16:51;18.00;;;9.98;;
28304;SDS011;15569;42.652;23.040;2022-07-04T02:19:16;27.52;;;11.65;;
28304;SDS011;15569;42.652;23.040;2022-07-04T02:21:43;28.15;;;12.45;;
28304;SDS011;15569;42.652;23.040;2022-07-04T02:24:08;17.55;;;10.93;;
28304;SDS011;15569;42.652;23.040;2022-07-04T02:26:34;22.48;;;11.70;;
28304;SDS011;15569;42.652;23.040;2022-07-04T02:28:59;25.45;;;12.02;;
28304;SDS011;15569;42.652;23.040;2022-07-04T02:31:25;23.38;;;11.75;;
28304;SDS011;15569;42.652;23.040;2022-07-04T02:33:51;24.52;;;11.60;;
28304;SDS011;15569;42.652;23.040;2022-07-04T02:36:17;24.40;;;11.30;;
28304;SDS011;15569;42.652;23.040;2022-07-04T02:38:42;26.08;;;11.32;;
28304;SDS011;15569;42.652;23.040;2022-07-04T02:41:07;18.40;;;10.38;;
28304;SDS011;15569;42.652;23.040;2022-07-04T02:43:33;30.25;;;11.40;;
28304;SDS011;15569;42.652;23.040;2022-07-04T02:45:58;26.65;;;11.52;;
28304;SDS011;15569;42.652;23.040;2022-07-04T02:48:23;23.00;;;11.15;;
28304;SDS011;15569;42.652;23.040;2022-07-04T02:50:49;28.27;;;10.93;;
28304;SDS011;15569;42.652;23.040;2022-07-04T02:53:14;19.15;;;11.18;;
28304;SDS011;15569;42.652;23.040;2022-07-04T02:55:40;19.98;;;10.82;;
28304;SDS011;15569;42.652;23.040;2022-07-04T02:58:05;21.33;;;10.95;;
28304;SDS011;15569;42.652;23.040;2022-07-04T03:00:30;20.95;;;11.50;;
28304;SDS011;15569;42.652;23.040;2022-07-04T03:02:56;19.05;;;10.88;;
28304;SDS011;15569;42.652;23.040;2022-07-04T03:05:21;25.05;;;11.30;;
28304;SDS011;15569;42.652;23.040;2022-07-04T03:07:47;16.60;;;10.35;;
28304;SDS011;15569;42.652;23.040;2022-07-04T03:10:12;34.67;;;12.33;;
28304;SDS011;15569;42.652;23.040;2022-07-04T03:12:38;24.65;;;12.52;;
28304;SDS011;15569;42.652;23.040;2022-07-04T03:15:03;23.27;;;12.13;;
28304;SDS011;15569;42.652;23.040;2022-07-04T03:17:29;21.58;;;10.82;;
28304;SDS011;15569;42.652;23.040;2022-07-04T03:19:55;25.45;;;11.95;;
28304;SDS011;15569;42.652;23.040;2022-07-04T03:22:23;24.25;;;12.18;;
28304;SDS011;15569;42.652;23.040;2022-07-04T03:24:49;21.30;;;11.73;;
28304;SDS011;15569;42.652;23.040;2022-07-04T03:27:14;20.98;;;11.43;;
28304;SDS011;15569;42.652;23.040;2022-07-04T03:29:40;20.88;;;11.02;;
28304;SDS011;15569;42.652;23.040;2022-07-04T03:32:05;23.25;;;11.63;;
28304;SDS011;15569;42.652;23.040;2022-07-04T03:34:31;26.83;;;12.15;;
28304;SDS011;15569;42.652;23.040;2022-07-04T03:36:56;23.27;;;11.80;;
28304;SDS011;15569;42.652;23.040;2022-07-04T03:41:58;24.05;;;11.45;;
28304;SDS011;15569;42.652;23.040;2022-07-04T03:44:24;30.33;;;11.75;;
28304;SDS011;15569;42.652;23.040;2022-07-04T03:46:49;23.02;;;11.45;;
28304;SDS011;15569;42.652;23.040;2022-07-04T03:49:14;19.33;;;10.88;;
28304;SDS011;15569;42.652;23.040;2022-07-04T03:51:40;26.83;;;12.35;;
28304;SDS011;15569;42.652;23.040;2022-07-04T03:54:05;25.38;;;11.75;;
28304;SDS011;15569;42.652;23.040;2022-07-04T03:56:31;23.52;;;13.23;;
28304;SDS011;15569;42.652;23.040;2022-07-04T03:58:56;20.13;;;11.35;;
28304;SDS011;15569;42.652;23.040;2022-07-04T04:01:21;19.90;;;11.32;;
28304;SDS011;15569;42.652;23.040;2022-07-04T04:03:47;22.05;;;10.80;;
28304;SDS011;15569;42.652;23.040;2022-07-04T04:06:31;32.85;;;12.32;;
28304;SDS011;15569;42.652;23.040;2022-07-04T04:08:56;20.95;;;11.65;;
28304;SDS011;15569;42.652;23.040;2022-07-04T04:11:22;23.58;;;11.65;;
28304;SDS011;15569;42.652;23.040;2022-07-04T04:13:47;23.67;;;12.57;;
28304;SDS011;15569;42.652;23.040;2022-07-04T04:16:13;27.30;;;12.57;;
28304;SDS011;15569;42.652;23.040;2022-07-04T04:18:38;30.05;;;12.35;;
28304;SDS011;15569;42.652;23.040;2022-07-04T04:21:04;31.85;;;13.35;;
28304;SDS011;15569;42.652;23.040;2022-07-04T04:23:30;31.05;;;12.98;;
28304;SDS011;15569;42.652;23.040;2022-07-04T04:25:55;25.60;;;12.52;;
28304;SDS011;15569;42.652;23.040;2022-07-04T04:28:21;26.58;;;11.80;;
28304;SDS011;15569;42.652;23.040;2022-07-04T04:30:47;28.98;;;12.35;;
28304;SDS011;15569;42.652;23.040;2022-07-04T04:33:12;27.73;;;12.68;;
28304;SDS011;15569;42.652;23.040;2022-07-04T04:35:38;21.77;;;11.90;;
28304;SDS011;15569;42.652;23.040;2022-07-04T04:38:03;30.17;;;12.48;;
28304;SDS011;15569;42.652;23.040;2022-07-04T04:40:29;31.25;;;13.63;;
28304;SDS011;15569;42.652;23.040;2022-07-04T04:42:55;30.17;;;12.50;;
28304;SDS011;15569;42.652;23.040;2022-07-04T04:45:20;27.25;;;12.13;;
28304;SDS011;15569;42.652;23.040;2022-07-04T04:47:46;25.05;;;13.65;;
28304;SDS011;15569;42.652;23.040;2022-07-04T04:50:11;26.13;;;13.80;;
28304;SDS011;15569;42.652;23.040;2022-07-04T04:52:39;22.85;;;12.35;;
28304;SDS011;15569;42.652;23.040;2022-07-04T04:55:05;33.28;;;14.68;;
28304;SDS011;15569;42.652;23.040;2022-07-04T04:57:31;29.75;;;13.57;;
28304;SDS011;15569;42.652;23.040;2022-07-04T04:59:56;27.45;;;13.98;;
28304;SDS011;15569;42.652;23.040;2022-07-04T05:02:22;27.52;;;13.55;;
28304;SDS011;15569;42.652;23.040;2022-07-04T05:04:47;24.63;;;14.05;;
28304;SDS011;15569;42.652;23.040;2022-07-04T05:07:13;26.85;;;13.20;;
28304;SDS011;15569;42.652;23.040;2022-07-04T05:09:38;28.17;;;13.48;;
28304;SDS011;15569;42.652;23.040;2022-07-04T05:12:04;24.30;;;13.18;;
28304;SDS011;15569;42.652;23.040;2022-07-04T05:14:30;25.05;;;14.13;;
28304;SDS011;15569;42.652;23.040;2022-07-04T05:16:55;28.90;;;13.52;;
28304;SDS011;15569;42.652;23.040;2022-07-04T05:19:21;25.13;;;13.50;;
28304;SDS011;15569;42.652;23.040;2022-07-04T05:21:47;22.92;;;11.50;;
28304;SDS011;15569;42.652;23.040;2022-07-04T05:24:12;28.77;;;11.65;;
28304;SDS011;15569;42.652;23.040;2022-07-04T05:26:37;15.75;;;9.32;;
28304;SDS011;15569;42.652;23.040;2022-07-04T05:29:04;18.45;;;9.32;;
28304;SDS011;15569;42.652;23.040;2022-07-04T05:31:30;17.27;;;9.02;;
28304;SDS011;15569;42.652;23.040;2022-07-04T05:33:55;14.45;;;8.35;;
28304;SDS011;15569;42.652;23.040;2022-07-04T05:36:23;17.55;;;9.35;;
28304;SDS011;15569;42.652;23.040;2022-07-04T05:38:49;19.33;;;9.32;;
28304;SDS011;15569;42.652;23.040;2022-07-04T05:41:15;15.82;;;8.30;;
28304;SDS011;15569;42.652;23.040;2022-07-04T05:43:40;15.15;;;7.85;;
28304;SDS011;15569;42.652;23.040;2022-07-04T05:46:06;14.00;;;8.07;;
28304;SDS011;15569;42.652;23.040;2022-07-04T05:48:32;10.68;;;6.82;;
28304;SDS011;15569;42.652;23.040;2022-07-04T05:53:26;15.10;;;7.75;;
28304;SDS011;15569;42.652;23.040;2022-07-04T05:55:51;6.97;;;4.35;;
28304;SDS011;15569;42.652;23.040;2022-07-04T05:58:17;5.95;;;3.75;;
28304;SDS011;15569;42.652;23.040;2022-07-04T06:00:42;6.68;;;4.13;;
28304;SDS011;15569;42.652;23.040;2022-07-04T06:03:08;5.68;;;4.10;;
28304;SDS011;15569;42.652;23.040;2022-07-04T06:05:33;7.28;;;3.92;;
28304;SDS011;15569;42.652;23.040;2022-07-04T06:07:59;4.57;;;4.07;;
28304;SDS011;15569;42.652;23.040;2022-07-04T06:10:24;19.33;;;8.55;;
28304;SDS011;15569;42.652;23.040;2022-07-04T06:12:50;15.27;;;5.75;;
28304;SDS011;15569;42.652;23.040;2022-07-04T06:15:15;17.77;;;8.55;;
28304;SDS011;15569;42.652;23.040;2022-07-04T06:17:41;12.95;;;7.13;;
28304;SDS011;15569;42.652;23.040;2022-07-04T06:22:43;8.23;;;5.40;;
28304;SDS011;15569;42.652;23.040;2022-07-04T06:25:14;13.07;;;5.63;;
28304;SDS011;15569;42.652;23.040;2022-07-04T06:27:41;18.30;;;7.45;;
28304;SDS011;15569;42.652;23.040;2022-07-04T06:30:07;27.70;;;13.32;;
28304;SDS011;15569;42.652;23.040;2022-07-04T06:37:46;43.65;;;26.88;;
28304;SDS011;15569;42.652;23.040;2022-07-04T06:40:11;21.88;;;18.60;;
28304;SDS011;15569;42.652;23.040;2022-07-04T06:42:36;19.38;;;16.63;;
28304;SDS011;15569;42.652;23.040;2022-07-04T06:45:02;29.88;;;22.52;;
28304;SDS011;15569;42.652;23.040;2022-07-04T06:47:28;35.42;;;23.02;;
28304;SDS011;15569;42.652;23.040;2022-07-04T06:49:53;28.80;;;21.60;;
28304;SDS011;15569;42.652;23.040;2022-07-04T06:52:18;41.08;;;30.55;;
28304;SDS011;15569;42.652;23.040;2022-07-04T06:54:44;55.40;;;33.55;;
28304;SDS011;15569;42.652;23.040;2022-07-04T06:57:09;35.47;;;22.67;;
28304;SDS011;15569;42.652;23.040;2022-07-04T06:59:37;17.23;;;12.77;;
28304;SDS011;15569;42.652;23.040;2022-07-04T07:02:02;25.52;;;12.48;;
28304;SDS011;15569;42.652;23.040;2022-07-04T07:04:28;15.40;;;8.73;;
28304;SDS011;15569;42.652;23.040;2022-07-04T07:06:53;13.40;;;8.98;;
28304;SDS011;15569;42.652;23.040;2022-07-04T07:09:19;56.75;;;21.17;;
28304;SDS011;15569;42.652;23.040;2022-07-04T07:11:44;7.80;;;5.70;;
28304;SDS011;15569;42.652;23.040;2022-07-04T07:14:09;7.68;;;6.00;;
28304;SDS011;15569;42.652;23.040;2022-07-04T07:16:35;13.60;;;8.32;;
28304;SDS011;15569;42.652;23.040;2022-07-04T07:19:00;10.27;;;5.28;;
28304;SDS011;15569;42.652;23.040;2022-07-04T07:21:26;5.32;;;4.55;;
28304;SDS011;15569;42.652;23.040;2022-07-04T07:23:51;13.50;;;4.30;;
28304;SDS011;15569;42.652;23.040;2022-07-04T07:26:16;10.27;;;5.97;;
28304;SDS011;15569;42.652;23.040;2022-07-04T07:28:42;14.40;;;9.55;;
28304;SDS011;15569;42.652;23.040;2022-07-04T07:31:07;20.98;;;8.52;;
28304;SDS011;15569;42.652;23.040;2022-07-04T07:33:33;13.45;;;6.85;;
28304;SDS011;15569;42.652;23.040;2022-07-04T07:35:58;5.05;;;4.43;;
28304;SDS011;15569;42.652;23.040;2022-07-04T07:38:24;12.18;;;6.47;;
28304;SDS011;15569;42.652;23.040;2022-07-04T07:40:49;7.55;;;4.63;;
28304;SDS011;15569;42.652;23.040;2022-07-04T07:43:14;8.50;;;7.60;;
28304;SDS011;15569;42.652;23.040;2022-07-04T07:45:40;10.57;;;5.97;;
28304;SDS011;15569;42.652;23.040;2022-07-04T07:48:05;10.13;;;4.93;;
28304;SDS011;15569;42.652;23.040;2022-07-04T07:50:31;9.23;;;6.10;;
28304;SDS011;15569;42.652;23.040;2022-07-04T07:52:57;6.93;;;5.40;;
28304;SDS011;15569;42.652;23.040;2022-07-04T07:55:22;5.22;;;4.70;;
28304;SDS011;15569;42.652;23.040;2022-07-04T07:57:48;12.80;;;5.07;;
28304;SDS011;15569;42.652;23.040;2022-07-04T08:00:13;4.63;;;4.10;;
28304;SDS011;15569;42.652;23.040;2022-07-04T08:02:39;8.85;;;4.75;;
28304;SDS011;15569;42.652;23.040;2022-07-04T08:05:25;6.07;;;4.93;;
28304;SDS011;15569;42.652;23.040;2022-07-04T08:07:50;5.43;;;4.60;;
28304;SDS011;15569;42.652;23.040;2022-07-04T08:10:16;19.90;;;9.13;;
28304;SDS011;15569;42.652;23.040;2022-07-04T08:12:41;29.33;;;21.48;;
28304;SDS011;15569;42.652;23.040;2022-07-04T08:15:07;45.03;;;30.50;;
28304;SDS011;15569;42.652;23.040;2022-07-04T08:17:33;50.05;;;33.55;;
28304;SDS011;15569;42.652;23.040;2022-07-04T08:19:59;25.30;;;18.08;;
28304;SDS011;15569;42.652;23.040;2022-07-04T08:22:25;18.92;;;10.23;;
28304;SDS011;15569;42.652;23.040;2022-07-04T08:24:50;55.83;;;34.13;;
28304;SDS011;15569;42.652;23.040;2022-07-04T08:27:16;25.02;;;15.60;;
28304;SDS011;15569;42.652;23.040;2022-07-04T08:29:41;13.60;;;10.20;;
28304;SDS011;15569;42.652;23.040;2022-07-04T08:32:07;12.88;;;8.50;;
28304;SDS011;15569;42.652;23.040;2022-07-04T08:34:33;11.98;;;8.27;;
28304;SDS011;15569;42.652;23.040;2022-07-04T08:36:59;10.70;;;6.32;;
28304;SDS011;15569;42.652;23.040;2022-07-04T08:39:25;5.80;;;5.10;;
28304;SDS011;15569;42.652;23.040;2022-07-04T08:41:51;13.30;;;7.57;;
28304;SDS011;15569;42.652;23.040;2022-07-04T08:44:17;8.43;;;6.20;;
28304;SDS011;15569;42.652;23.040;2022-07-04T08:46:45;5.90;;;4.85;;
28304;SDS011;15569;42.652;23.040;2022-07-04T08:49:16;6.60;;;5.25;;
28304;SDS011;15569;42.652;23.040;2022-07-04T08:51:59;6.97;;;5.20;;
28304;SDS011;15569;42.652;23.040;2022-07-04T08:54:30;15.05;;;5.70;;
28304;SDS011;15569;42.652;23.040;2022-07-04T08:57:15;9.60;;;5.03;;
28304;SDS011;15569;42.652;23.040;2022-07-04T08:59:59;9.63;;;4.85;;
28304;SDS011;15569;42.652;23.040;2022-07-04T09:02:25;10.15;;;5.13;;
28304;SDS011;15569;42.652;23.040;2022-07-04T09:04:53;6.43;;;5.40;;
28304;SDS011;15569;42.652;23.040;2022-07-04T09:07:19;9.50;;;5.45;;
28304;SDS011;15569;42.652;23.040;2022-07-04T09:09:44;11.32;;;5.35;;
28304;SDS011;15569;42.652;23.040;2022-07-04T09:12:10;12.30;;;5.20;;
28304;SDS011;15569;42.652;23.040;2022-07-04T09:14:36;9.85;;;5.30;;
28304;SDS011;15569;42.652;23.040;2022-07-04T09:17:02;7.88;;;5.15;;
28304;SDS011;15569;42.652;23.040;2022-07-04T09:19:29;10.18;;;4.70;;
28304;SDS011;15569;42.652;23.040;2022-07-04T09:22:01;10.70;;;4.97;;
28304;SDS011;15569;42.652;23.040;2022-07-04T09:24:46;6.13;;;5.53;;
28304;SDS011;15569;42.652;23.040;2022-07-04T09:27:29;13.07;;;8.05;;
28304;SDS011;15569;42.652;23.040;2022-07-04T09:29:55;23.83;;;8.63;;
28304;SDS011;15569;42.652;23.040;2022-07-04T09:35:01;30.70;;;14.73;;
28304;SDS011;15569;42.652;23.040;2022-07-04T09:37:38;16.08;;;7.32;;
28304;SDS011;15569;42.652;23.040;2022-07-04T09:40:09;11.27;;;6.97;;
28304;SDS011;15569;42.652;23.040;2022-07-04T09:42:41;16.55;;;9.85;;
28304;SDS011;15569;42.652;23.040;2022-07-04T09:45:07;11.30;;;6.63;;
28304;SDS011;15569;42.652;23.040;2022-07-04T09:47:35;8.15;;;6.05;;
28304;SDS011;15569;42.652;23.040;2022-07-04T10:15:50;8.82;;;5.45;;
28304;SDS011;15569;42.652;23.040;2022-07-04T10:18:20;8.95;;;5.00;;
28304;SDS011;15569;42.652;23.040;2022-07-04T10:20:46;7.90;;;5.40;;
28304;SDS011;15569;42.652;23.040;2022-07-04T10:23:14;6.38;;;5.20;;
28304;SDS011;15569;42.652;23.040;2022-07-04T10:25:40;15.55;;;5.63;;
28304;SDS011;15569;42.652;23.040;2022-07-04T10:28:07;8.57;;;5.93;;
28304;SDS011;15569;42.652;23.040;2022-07-04T10:30:33;9.88;;;5.50;;
28304;SDS011;15569;42.652;23.040;2022-07-04T10:33:01;9.57;;;5.00;;
28304;SDS011;15569;42.652;23.040;2022-07-04T10:38:23;12.35;;;6.45;;
28304;SDS011;15569;42.652;23.040;2022-07-04T10:40:54;5.60;;;4.97;;
28304;SDS011;15569;42.652;23.040;2022-07-04T10:48:27;7.38;;;5.40;;
28304;SDS011;15569;42.652;23.040;2022-07-04T10:51:03;12.38;;;5.78;;
28304;SDS011;15569;42.652;23.040;2022-07-04T10:53:31;10.77;;;5.80;;
28304;SDS011;15569;42.652;23.040;2022-07-04T10:58:41;9.38;;;5.45;;
28304;SDS011;15569;42.652;23.040;2022-07-04T11:03:45;10.70;;;5.75;;
28304;SDS011;15569;42.652;23.040;2022-07-04T11:14:29;32.20;;;20.80;;
28304;SDS011;15569;42.652;23.040;2022-07-04T11:17:15;42.15;;;27.75;;
28304;SDS011;15569;42.652;23.040;2022-07-04T11:19:45;21.23;;;16.85;;
28304;SDS011;15569;42.652;23.040;2022-07-04T11:22:11;13.15;;;10.35;;
28304;SDS011;15569;42.652;23.040;2022-07-04T11:24:45;15.35;;;9.40;;
28304;SDS011;15569;42.652;23.040;2022-07-04T11:27:11;10.30;;;6.80;;
28304;SDS011;15569;42.652;23.040;2022-07-04T11:29:36;13.40;;;8.77;;
28304;SDS011;15569;42.652;23.040;2022-07-04T11:32:02;7.88;;;5.82;;
28304;SDS011;15569;42.652;23.040;2022-07-04T11:34:32;6.72;;;5.47;;
28304;SDS011;15569;42.652;23.040;2022-07-04T11:36:58;12.48;;;6.13;;
28304;SDS011;15569;42.652;23.040;2022-07-04T11:39:26;12.38;;;6.65;;
28304;SDS011;15569;42.652;23.040;2022-07-04T11:41:52;9.23;;;5.57;;
28304;SDS011;15569;42.652;23.040;2022-07-04T11:44:36;8.30;;;6.53;;
28304;SDS011;15569;42.652;23.040;2022-07-04T11:47:23;6.13;;;5.35;;
28304;SDS011;15569;42.652;23.040;2022-07-04T11:49:58;18.23;;;5.97;;
28304;SDS011;15569;42.652;23.040;2022-07-04T11:52:38;6.18;;;5.35;;
28304;SDS011;15569;42.652;23.040;2022-07-04T11:55:04;7.32;;;5.10;;
28304;SDS011;15569;42.652;23.040;2022-07-04T11:57:35;8.70;;;6.45;;
28304;SDS011;15569;42.652;23.040;2022-07-04T12:02:33;7.95;;;6.70;;
28304;SDS011;15569;42.652;23.040;2022-07-04T12:04:59;19.33;;;6.20;;
28304;SDS011;15569;42.652;23.040;2022-07-04T12:07:27;6.50;;;5.80;;
28304;SDS011;15569;42.652;23.040;2022-07-04T12:09:55;33.10;;;21.33;;
28304;SDS011;15569;42.652;23.040;2022-07-04T12:12:21;13.52;;;10.65;;
28304;SDS011;15569;42.652;23.040;2022-07-04T12:17:29;63.83;;;36.35;;
28304;SDS011;15569;42.652;23.040;2022-07-04T12:19:57;27.77;;;16.90;;
28304;SDS011;15569;42.652;23.040;2022-07-04T12:22:24;13.43;;;8.43;;
28304;SDS011;15569;42.652;23.040;2022-07-04T12:24:53;14.70;;;8.30;;
28304;SDS011;15569;42.652;23.040;2022-07-04T12:27:18;12.85;;;6.47;;
28304;SDS011;15569;42.652;23.040;2022-07-04T12:29:48;13.30;;;6.85;;
28304;SDS011;15569;42.652;23.040;2022-07-04T12:32:14;20.58;;;14.82;;
28304;SDS011;15569;42.652;23.040;2022-07-04T12:34:40;7.10;;;6.40;;
28304;SDS011;15569;42.652;23.040;2022-07-04T12:37:09;10.80;;;5.90;;
28304;SDS011;15569;42.652;23.040;2022-07-04T12:39:39;7.00;;;6.10;;
28304;SDS011;15569;42.652;23.040;2022-07-04T12:42:07;11.93;;;8.25;;
28304;SDS011;15569;42.652;23.040;2022-07-04T12:44:35;8.57;;;6.53;;
28304;SDS011;15569;42.652;23.040;2022-07-04T12:47:01;8.65;;;7.65;;
28304;SDS011;15569;42.652;23.040;2022-07-04T12:49:28;13.25;;;7.68;;
28304;SDS011;15569;42.652;23.040;2022-07-04T12:52:04;22.10;;;10.63;;
28304;SDS011;15569;42.652;23.040;2022-07-04T12:54:30;18.98;;;11.68;;
28304;SDS011;15569;42.652;23.040;2022-07-04T12:57:16;10.32;;;7.60;;
28304;SDS011;15569;42.652;23.040;2022-07-04T12:59:43;18.55;;;11.70;;
28304;SDS011;15569;42.652;23.040;2022-07-04T13:02:09;9.98;;;6.90;;
28304;SDS011;15569;42.652;23.040;2022-07-04T13:04:37;9.95;;;6.00;;
28304;SDS011;15569;42.652;23.040;2022-07-04T13:07:15;8.18;;;6.65;;
28304;SDS011;15569;42.652;23.040;2022-07-04T13:12:09;8.65;;;6.78;;
28304;SDS011;15569;42.652;23.040;2022-07-04T13:14:51;8.70;;;6.18;;
28304;SDS011;15569;42.652;23.040;2022-07-04T13:17:17;10.68;;;5.85;;
28304;SDS011;15569;42.652;23.040;2022-07-04T13:19:43;8.88;;;6.18;;
28304;SDS011;15569;42.652;23.040;2022-07-04T13:24:37;9.70;;;6.40;;
28304;SDS011;15569;42.652;23.040;2022-07-04T13:27:03;6.85;;;6.20;;
28304;SDS011;15569;42.652;23.040;2022-07-04T13:29:29;7.95;;;6.63;;
28304;SDS011;15569;42.652;23.040;2022-07-04T13:31:54;9.10;;;6.90;;
28304;SDS011;15569;42.652;23.040;2022-07-04T13:34:19;7.55;;;6.13;;
28304;SDS011;15569;42.652;23.040;2022-07-04T13:36:45;13.23;;;6.75;;
28304;SDS011;15569;42.652;23.040;2022-07-04T13:39:11;10.27;;;6.22;;
28304;SDS011;15569;42.652;23.040;2022-07-04T13:41:37;11.15;;;5.57;;
28304;SDS011;15569;42.652;23.040;2022-07-04T13:44:03;6.45;;;5.85;;
28304;SDS011;15569;42.652;23.040;2022-07-04T13:46:30;12.48;;;6.40;;
28304;SDS011;15569;42.652;23.040;2022-07-04T13:49:00;14.13;;;7.20;;
28304;SDS011;15569;42.652;23.040;2022-07-04T13:51:28;13.63;;;5.85;;
28304;SDS011;15569;42.652;23.040;2022-07-04T13:53:54;10.00;;;5.85;;
28304;SDS011;15569;42.652;23.040;2022-07-04T13:56:19;9.82;;;6.00;;
28304;SDS011;15569;42.652;23.040;2022-07-04T13:58:46;10.52;;;7.53;;
28304;SDS011;15569;42.652;23.040;2022-07-04T14:01:12;18.45;;;7.85;;
28304;SDS011;15569;42.652;23.040;2022-07-04T14:03:40;6.22;;;5.63;;
28304;SDS011;15569;42.652;23.040;2022-07-04T14:08:37;5.80;;;5.30;;
28304;SDS011;15569;42.652;23.040;2022-07-04T14:11:03;7.38;;;6.45;;
28304;SDS011;15569;42.652;23.040;2022-07-04T14:13:29;7.00;;;5.55;;
28304;SDS011;15569;42.652;23.040;2022-07-04T14:15:54;7.45;;;5.38;;
28304;SDS011;15569;42.652;23.040;2022-07-04T14:18:20;6.63;;;5.80;;
28304;SDS011;15569;42.652;23.040;2022-07-04T14:20:45;7.70;;;6.03;;
28304;SDS011;15569;42.652;23.040;2022-07-04T14:23:11;6.95;;;6.25;;
28304;SDS011;15569;42.652;23.040;2022-07-04T14:25:37;7.72;;;5.70;;
28304;SDS011;15569;42.652;23.040;2022-07-04T14:28:03;7.55;;;6.30;;
28304;SDS011;15569;42.652;23.040;2022-07-04T14:30:29;9.30;;;6.85;;
28304;SDS011;15569;42.652;23.040;2022-07-04T14:32:54;15.20;;;7.63;;
28304;SDS011;15569;42.652;23.040;2022-07-04T14:35:20;13.18;;;8.15;;
28304;SDS011;15569;42.652;23.040;2022-07-04T14:37:45;8.18;;;6.60;;
28304;SDS011;15569;42.652;23.040;2022-07-04T14:40:11;13.65;;;6.07;;
28304;SDS011;15569;42.652;23.040;2022-07-04T14:42:37;8.25;;;5.38;;
28304;SDS011;15569;42.652;23.040;2022-07-04T14:45:03;13.45;;;7.13;;
28304;SDS011;15569;42.652;23.040;2022-07-04T14:47:28;8.75;;;7.57;;
28304;SDS011;15569;42.652;23.040;2022-07-04T14:49:56;9.18;;;6.63;;
28304;SDS011;15569;42.652;23.040;2022-07-04T15:02:43;20.27;;;14.73;;
28304;SDS011;15569;42.652;23.040;2022-07-04T15:05:11;15.05;;;10.30;;
28304;SDS011;15569;42.652;23.040;2022-07-04T15:07:37;13.40;;;9.48;;
28304;SDS011;15569;42.652;23.040;2022-07-04T15:10:04;14.55;;;8.70;;
28304;SDS011;15569;42.652;23.040;2022-07-04T15:12:32;18.98;;;10.60;;
28304;SDS011;15569;42.652;23.040;2022-07-04T15:14:58;12.10;;;7.30;;
28304;SDS011;15569;42.652;23.040;2022-07-04T15:17:24;9.32;;;6.72;;
28304;SDS011;15569;42.652;23.040;2022-07-04T15:19:49;10.10;;;7.50;;
28304;SDS011;15569;42.652;23.040;2022-07-04T15:22:33;12.82;;;7.53;;
28304;SDS011;15569;42.652;23.040;2022-07-04T15:25:17;14.63;;;7.82;;
28304;SDS011;15569;42.652;23.040;2022-07-04T15:27:42;8.45;;;6.90;;
28304;SDS011;15569;42.652;23.040;2022-07-04T15:30:08;13.38;;;8.35;;
28304;SDS011;15569;42.652;23.040;2022-07-04T15:32:33;12.20;;;9.55;;
28304;SDS011;15569;42.652;23.040;2022-07-04T15:34:59;11.45;;;8.35;;
28304;SDS011;15569;42.652;23.040;2022-07-04T15:37:24;17.13;;;10.02;;
28304;SDS011;15569;42.652;23.040;2022-07-04T15:39:50;12.55;;;10.40;;
28304;SDS011;15569;42.652;23.040;2022-07-04T15:42:16;9.50;;;7.40;;
28304;SDS011;15569;42.652;23.040;2022-07-04T15:44:41;12.82;;;8.30;;
28304;SDS011;15569;42.652;23.040;2022-07-04T15:47:08;15.95;;;9.13;;
28304;SDS011;15569;42.652;23.040;2022-07-04T15:49:34;11.45;;;8.00;;